Time;durP1;ratioP1;P1;durP2;ratioP2;P2;SDS_P1;SDS_P2;PMS_P1;PMS_P2;Temp;Humidity;BMP_temperature;BMP_pressure;BME280_temperature;BME280_humidity;BME280_pressure;Samples;Min_cycle;Max_cycle;Signal;HPM_P1;HPM_P2
2021/04/03 00:01:24;;;;;;;16.27;8.43;;;8.80;52.80;;;;;;10052810;28;20486;-67
2021/04/03 00:06:14;;;;;;;19.50;10.02;;;8.90;52.40;;;;;;10054127;28;20496;-66
2021/04/03 00:11:07;;;;;;;17.23;8.50;;;8.70;52.50;;;;;;10053119;28;20037;-66
2021/04/03 00:15:58;;;;;;;17.55;8.77;;;8.70;52.20;;;;;;10039343;28;20071;-66
2021/04/03 00:20:49;;;;;;;20.52;9.35;;;8.70;52.30;;;;;;10053114;28;20467;-66
2021/04/03 00:25:39;;;;;;;21.25;9.52;;;8.70;51.60;;;;;;10050988;28;20033;-65
2021/04/03 00:30:30;;;;;;;17.92;9.40;;;8.50;52.10;;;;;;10054839;28;20044;-65
2021/04/03 00:35:28;;;;;;;17.05;8.73;;;8.50;52.10;;;;;;10050006;28;20067;-66
2021/04/03 00:40:29;;;;;;;20.20;9.10;;;8.60;52.30;;;;;;10051599;28;20033;-66
2021/04/03 00:45:22;;;;;;;17.98;9.85;;;8.50;52.00;;;;;;10062283;28;20029;-66
2021/04/03 00:50:20;;;;;;;17.00;8.50;;;8.30;52.30;;;;;;10051821;28;20872;-66
2021/04/03 00:55:11;;;;;;;17.02;8.27;;;8.10;53.10;;;;;;10051322;28;20240;-66
2021/04/03 01:00:05;;;;;;;18.90;9.55;;;8.10;52.50;;;;;;10048856;28;20028;-65
2021/04/03 01:04:57;;;;;;;20.48;9.27;;;8.20;52.10;;;;;;10056502;28;20020;-65
2021/04/03 01:09:49;;;;;;;17.25;8.63;;;8.10;52.70;;;;;;10083281;28;20715;-64
2021/04/03 01:14:47;;;;;;;14.02;8.10;;;8.10;52.40;;;;;;10092314;28;20036;-65
2021/04/03 01:20:01;;;;;;;16.23;8.52;;;8.00;52.80;;;;;;10042845;28;20086;-65
2021/04/03 01:25:34;;;;;;;16.77;7.57;;;8.10;53.20;;;;;;10057126;28;20699;-65
2021/04/03 01:30:27;;;;;;;18.55;9.20;;;8.10;52.70;;;;;;10021989;28;20076;-66
2021/04/03 01:35:29;;;;;;;18.50;8.55;;;8.10;52.30;;;;;;10095936;28;20403;-65
2021/04/03 01:40:21;;;;;;;18.05;8.90;;;7.90;53.60;;;;;;10082489;28;20592;-65
2021/04/03 01:45:13;;;;;;;18.38;8.32;;;7.80;52.70;;;;;;10082920;28;20119;-66
2021/04/03 01:50:05;;;;;;;16.77;8.02;;;7.90;52.70;;;;;;10091616;28;20041;-66
2021/04/03 01:55:07;;;;;;;15.02;7.88;;;7.90;52.60;;;;;;10092515;28;20036;-65
2021/04/03 01:59:59;;;;;;;18.05;8.73;;;7.90;52.50;;;;;;10090855;28;20674;-65
2021/04/03 02:04:51;;;;;;;21.45;8.88;;;8.00;52.10;;;;;;10091758;28;20037;-65
2021/04/03 02:09:45;;;;;;;17.38;8.80;;;8.00;52.20;;;;;;10107859;28;20186;-66
2021/04/03 02:14:38;;;;;;;17.60;8.48;;;8.10;52.10;;;;;;10083127;28;20028;-65
2021/04/03 02:19:30;;;;;;;17.10;9.32;;;7.90;52.20;;;;;;10090630;28;20036;-65
2021/04/03 02:24:21;;;;;;;13.18;7.60;;;7.90;52.30;;;;;;10090505;28;20028;-66
2021/04/03 02:29:12;;;;;;;19.17;9.07;;;7.90;52.00;;;;;;10093369;28;20045;-65
2021/04/03 02:34:04;;;;;;;11.52;7.45;;;7.80;52.00;;;;;;10045250;28;20625;-64
2021/04/03 02:38:55;;;;;;;13.25;7.25;;;7.90;52.30;;;;;;10037732;28;20038;-68
2021/04/03 02:44:10;;;;;;;17.23;7.72;;;7.90;52.10;;;;;;10038035;28;20134;-64
2021/04/03 02:49:06;;;;;;;13.20;7.45;;;7.70;52.30;;;;;;10017381;28;20978;-65
2021/04/03 02:53:59;;;;;;;;;;;7.60;52.50;;;;;;10002341;28;20087;-65
2021/04/03 02:58:52;;;;;;;12.13;6.15;;;7.60;53.20;;;;;;10019267;28;19917;-65
2021/04/03 03:03:45;;;;;;;14.82;7.40;;;7.60;52.30;;;;;;10017960;28;20029;-65
2021/04/03 03:08:38;;;;;;;16.23;8.18;;;7.40;52.50;;;;;;10020808;28;20068;-65
2021/04/03 03:13:34;;;;;;;16.17;8.65;;;7.30;52.50;;;;;;10000479;28;20213;-66
2021/04/03 03:18:25;;;;;;;14.83;8.17;;;7.10;52.90;;;;;;10020384;28;20045;-63
2021/04/03 03:23:16;;;;;;;16.15;7.68;;;7.10;53.40;;;;;;10020183;28;20280;-65
2021/04/03 03:28:07;;;;;;;17.55;7.80;;;7.40;52.60;;;;;;10015973;28;20523;-65
2021/04/03 03:32:58;;;;;;;17.73;7.80;;;7.50;52.50;;;;;;10035909;28;20053;-65
2021/04/03 03:37:51;;;;;;;13.93;7.32;;;7.40;52.80;;;;;;10054118;28;20032;-66
2021/04/03 03:42:43;;;;;;;20.77;8.38;;;7.30;52.80;;;;;;10075631;28;20033;-65
2021/04/03 03:47:33;;;;;;;15.88;8.38;;;7.30;53.30;;;;;;10056031;28;20481;-65
2021/04/03 03:52:24;;;;;;;17.00;7.72;;;7.30;53.20;;;;;;10066148;28;20102;-66
2021/04/03 03:57:15;;;;;;;16.42;8.05;;;7.20;53.50;;;;;;10046148;28;20073;-65
2021/04/03 04:02:06;;;;;;;17.30;7.72;;;7.10;53.30;;;;;;10056387;28;20688;-65
2021/04/03 04:06:56;;;;;;;17.30;8.45;;;7.00;53.70;;;;;;10064334;28;20534;-66
2021/04/03 04:11:47;;;;;;;15.60;8.07;;;7.10;53.60;;;;;;10050795;28;20038;-65
2021/04/03 04:16:38;;;;;;;14.55;7.65;;;6.90;53.60;;;;;;10068809;28;20028;-66
2021/04/03 04:21:29;;;;;;;13.93;7.45;;;7.00;53.80;;;;;;10058537;28;20057;-67
2021/04/03 04:26:20;;;;;;;14.20;7.28;;;7.00;53.80;;;;;;10035188;28;20021;-65
2021/04/03 04:31:10;;;;;;;13.18;7.38;;;7.00;54.00;;;;;;10037142;28;20132;-65
2021/04/03 04:36:01;;;;;;;19.98;7.63;;;7.00;54.10;;;;;;10037094;28;20510;-65
2021/04/03 04:40:52;;;;;;;13.07;7.32;;;6.90;54.40;;;;;;10069581;28;20029;-65
2021/04/03 04:45:43;;;;;;;14.85;7.47;;;6.80;54.60;;;;;;10062503;28;20457;-65
2021/04/03 04:50:34;;;;;;;16.48;7.30;;;6.70;54.40;;;;;;10070780;28;20045;-65
2021/04/03 04:55:25;;;;;;;30.50;8.93;;;6.70;54.50;;;;;;10054724;28;20037;-65
2021/04/03 05:00:16;;;;;;;18.90;9.50;;;6.70;54.90;;;;;;10061343;28;20037;-67
2021/04/03 05:05:07;;;;;;;14.93;7.50;;;6.50;55.10;;;;;;10056556;28;20028;-65
2021/04/03 05:09:58;;;;;;;14.70;7.22;;;6.50;55.10;;;;;;10052210;28;20595;-65
2021/04/03 05:14:49;;;;;;;14.40;6.32;;;6.60;54.40;;;;;;10041757;28;20086;-66
2021/04/03 05:19:39;;;;;;;15.75;7.60;;;6.60;55.10;;;;;;10058497;28;20036;-66
2021/04/03 05:24:30;;;;;;;15.00;6.20;;;6.60;54.60;;;;;;10052626;28;20076;-67
2021/04/03 05:29:21;;;;;;;16.95;7.72;;;6.70;54.30;;;;;;10053951;28;20064;-67
2021/04/03 05:34:13;;;;;;;14.48;5.20;;;6.70;54.20;;;;;;10066531;28;20056;-66
2021/04/03 05:39:04;;;;;;;17.80;6.60;;;6.60;54.50;;;;;;10053975;28;20516;-66
2021/04/03 05:43:56;;;;;;;15.52;6.75;;;6.50;54.60;;;;;;10068856;28;20025;-66
2021/04/03 05:48:47;;;;;;;14.52;5.57;;;6.70;54.40;;;;;;10053167;28;20395;-65
2021/04/03 05:53:39;;;;;;;8.50;5.57;;;6.80;54.50;;;;;;10052414;28;20040;-65
2021/04/03 05:58:30;;;;;;;12.20;5.47;;;6.90;54.70;;;;;;10051371;28;20156;-66
2021/04/03 06:03:21;;;;;;;17.60;7.03;;;6.90;54.30;;;;;;10056207;28;20928;-66
2021/04/03 06:08:12;;;;;;;9.55;5.53;;;6.90;53.90;;;;;;10051028;28;20215;-66
2021/04/03 06:13:16;;;;;;;10.57;5.07;;;7.00;54.30;;;;;;10053118;28;20251;-65
2021/04/03 06:18:11;;;;;;;12.35;5.13;;;7.00;54.00;;;;;;10034577;28;20037;-67
2021/04/03 06:23:04;;;;;;;12.38;4.78;;;7.00;54.30;;;;;;10032011;28;20123;-66
2021/04/03 06:28:08;;;;;;;9.98;5.63;;;7.00;54.30;;;;;;10052447;28;20187;-66
2021/04/03 06:33:13;;;;;;;9.15;4.07;;;7.20;54.00;;;;;;10058083;28;20049;-66
2021/04/03 06:38:21;;;;;;;7.32;3.92;;;7.20;54.30;;;;;;10048421;28;20041;-66
2021/04/03 06:43:19;;;;;;;8.05;4.35;;;7.40;53.80;;;;;;10059003;28;20467;-67
2021/04/03 06:48:12;;;;;;;7.22;4.28;;;7.40;53.40;;;;;;10056181;28;20033;-66
2021/04/03 06:53:10;;;;;;;10.43;5.07;;;7.60;53.20;;;;;;10059558;28;20051;-66
2021/04/03 06:58:04;;;;;;;9.15;4.07;;;7.60;53.10;;;;;;10058199;28;20036;-67
2021/04/03 07:03:23;;;;;;;7.20;3.83;;;7.70;52.80;;;;;;10057299;28;20158;-67
2021/04/03 07:08:16;;;;;;;18.27;4.28;;;7.90;53.00;;;;;;10061730;28;20105;-67
2021/04/03 07:13:10;;;;;;;8.85;4.00;;;7.90;52.80;;;;;;10057638;28;20144;-67
2021/04/03 07:18:01;;;;;;;8.13;4.65;;;8.10;52.50;;;;;;10079628;28;20037;-66
2021/04/03 07:22:54;;;;;;;6.93;3.92;;;8.10;52.50;;;;;;10039640;28;20044;-67
2021/04/03 07:27:46;;;;;;;4.13;2.50;;;8.20;52.50;;;;;;10057805;28;20036;-67
2021/04/03 07:32:44;;;;;;;5.95;3.80;;;8.30;52.30;;;;;;10070712;28;20061;-67
2021/04/03 07:37:36;;;;;;;8.60;2.78;;;8.40;52.40;;;;;;10087807;28;20735;-68
2021/04/03 07:42:34;;;;;;;5.88;2.72;;;8.50;52.10;;;;;;10085786;28;20043;-67
2021/04/03 07:47:24;;;;;;;5.32;2.85;;;8.80;51.80;;;;;;10090646;28;20032;-67
2021/04/03 07:52:15;;;;;;;4.97;3.55;;;8.90;51.60;;;;;;10090491;28;20040;-68
2021/04/03 07:57:08;;;;;;;8.10;3.70;;;8.80;52.10;;;;;;10055945;28;20039;-67
2021/04/03 08:01:59;;;;;;;4.82;2.65;;;8.80;52.30;;;;;;10084245;28;20429;-68
2021/04/03 08:06:51;;;;;;;4.97;2.95;;;8.70;52.50;;;;;;10077382;28;20028;-67
2021/04/03 08:11:43;;;;;;;7.25;3.20;;;8.80;52.50;;;;;;10074860;28;21126;-68
2021/04/03 08:16:36;;;;;;;5.20;3.10;;;9.00;52.00;;;;;;10086380;28;20054;-66
2021/04/03 08:21:29;;;;;;;8.32;3.95;;;8.80;52.20;;;;;;10079730;28;20801;-68
2021/04/03 08:26:24;;;;;;;6.90;3.33;;;9.00;52.40;;;;;;10058608;28;20412;-68
2021/04/03 08:31:19;;;;;;;6.18;2.72;;;9.00;52.30;;;;;;10089813;28;20076;-66
2021/04/03 08:36:18;;;;;;;4.17;2.60;;;9.20;52.00;;;;;;10051909;28;20379;-68
2021/04/03 08:41:20;;;;;;;3.90;2.63;;;9.40;51.30;;;;;;10051595;28;20660;-67
2021/04/03 08:46:13;;;;;;;7.10;2.53;;;10.00;50.70;;;;;;10052114;28;20063;-68
2021/04/03 08:51:06;;;;;;;3.83;2.10;;;9.70;50.40;;;;;;10050625;28;20269;-66
2021/04/03 08:56:01;;;;;;;5.10;2.63;;;9.80;50.60;;;;;;10052864;28;20499;-68
2021/04/03 09:00:52;;;;;;;4.45;1.85;;;10.20;50.20;;;;;;10052496;28;21062;-68
2021/04/03 09:05:47;;;;;;;3.20;1.77;;;10.60;49.40;;;;;;10050083;28;20063;-68
2021/04/03 09:10:38;;;;;;;3.35;1.38;;;10.70;48.10;;;;;;10050733;28;20126;-68
2021/04/03 09:15:30;;;;;;;6.38;3.05;;;10.50;47.30;;;;;;10051127;28;20522;-67
2021/04/03 09:20:28;;;;;;;2.22;1.45;;;10.20;47.20;;;;;;10064543;28;20032;-67
2021/04/03 09:25:28;;;;;;;4.95;2.45;;;10.10;47.60;;;;;;10048802;28;21332;-69
2021/04/03 09:30:19;;;;;;;6.47;1.92;;;10.10;47.70;;;;;;10049989;28;20521;-67
2021/04/03 09:35:12;;;;;;;2.83;1.92;;;10.30;47.00;;;;;;10049872;28;20060;-68
2021/04/03 09:40:07;;;;;;;9.50;2.95;;;10.40;46.90;;;;;;10050756;28;20029;-68
2021/04/03 09:45:00;;;;;;;3.33;1.90;;;10.70;45.80;;;;;;10049964;28;20072;-67
2021/04/03 09:49:51;;;;;;;2.88;1.90;;;10.80;45.80;;;;;;10014866;28;20041;-67
2021/04/03 09:54:44;;;;;;;7.72;2.50;;;10.80;45.40;;;;;;10050836;28;20087;-67
2021/04/03 09:59:35;;;;;;;4.07;1.92;;;10.60;44.70;;;;;;10049677;28;20286;-67
2021/04/03 10:04:26;;;;;;;4.35;2.42;;;10.40;44.90;;;;;;10049238;28;20041;-67
2021/04/03 10:09:17;;;;;;;3.92;2.05;;;10.40;45.10;;;;;;10052686;28;20048;-68
2021/04/03 10:14:08;;;;;;;5.35;2.45;;;10.20;45.50;;;;;;10057116;28;20805;-68
2021/04/03 10:18:59;;;;;;;4.50;1.92;;;10.10;45.90;;;;;;10057038;28;20163;-68
2021/04/03 10:23:50;;;;;;;3.38;2.22;;;10.30;45.40;;;;;;10056254;28;20064;-68
2021/04/03 10:28:41;;;;;;;3.40;2.42;;;10.90;44.40;;;;;;10056020;28;20029;-68
2021/04/03 10:33:32;;;;;;;6.75;3.08;;;11.00;44.40;;;;;;10056524;28;20069;-67
2021/04/03 10:38:23;;;;;;;4.55;2.28;;;10.90;44.30;;;;;;10057316;28;20053;-67
2021/04/03 10:43:14;;;;;;;3.55;2.03;;;11.40;44.10;;;;;;10055997;28;20082;-66
2021/04/03 10:48:05;;;;;;;3.92;2.47;;;11.60;44.00;;;;;;10056061;28;20041;-67
2021/04/03 10:52:56;;;;;;;5.70;2.42;;;11.70;43.30;;;;;;10056594;28;20053;-67
2021/04/03 10:57:46;;;;;;;3.60;2.00;;;11.80;43.60;;;;;;10055472;28;20060;-68
2021/04/03 11:02:37;;;;;;;5.03;2.65;;;11.70;43.10;;;;;;10036954;28;20293;-68
2021/04/03 11:07:28;;;;;;;4.03;2.22;;;11.70;43.40;;;;;;10055473;28;20036;-67
2021/04/03 11:12:19;;;;;;;4.47;2.53;;;11.90;42.90;;;;;;10054246;28;20317;-67
2021/04/03 11:17:13;;;;;;;5.80;2.03;;;12.40;42.00;;;;;;10054651;28;20088;-67
2021/04/03 11:22:04;;;;;;;3.55;2.10;;;12.10;41.60;;;;;;10053206;28;20119;-67
2021/04/03 11:26:55;;;;;;;2.80;1.60;;;11.90;41.60;;;;;;10052031;28;20129;-67
2021/04/03 11:31:46;;;;;;;3.47;1.77;;;11.90;41.50;;;;;;10053671;28;20354;-67
2021/04/03 11:36:37;;;;;;;2.78;1.52;;;11.90;41.30;;;;;;10054984;28;20025;-68
2021/04/03 11:41:28;;;;;;;4.97;1.45;;;12.20;40.70;;;;;;10053743;28;20527;-67
2021/04/03 11:46:18;;;;;;;3.88;1.40;;;12.20;40.40;;;;;;10053588;28;20040;-67
2021/04/03 11:51:11;;;;;;;3.85;2.33;;;12.30;39.60;;;;;;10054295;28;20044;-68
2021/04/03 11:56:02;;;;;;;2.75;1.50;;;12.10;40.20;;;;;;10053407;28;20033;-67
2021/04/03 12:00:53;;;;;;;4.70;1.67;;;12.30;39.90;;;;;;10035499;28;20772;-67
2021/04/03 12:05:43;;;;;;;2.63;1.45;;;12.40;39.80;;;;;;10053080;28;20029;-67
2021/04/03 12:10:37;;;;;;;2.85;1.42;;;12.40;39.40;;;;;;10052616;28;20046;-67
2021/04/03 12:15:27;;;;;;;4.28;1.80;;;12.50;39.30;;;;;;10052288;28;20041;-68
2021/04/03 12:20:18;;;;;;;2.35;1.50;;;13.00;38.70;;;;;;10053161;28;20465;-69
2021/04/03 12:25:10;;;;;;;2.58;1.50;;;13.60;37.90;;;;;;10050707;28;20069;-67
2021/04/03 12:30:02;;;;;;;3.70;1.48;;;13.70;37.80;;;;;;10051475;28;20029;-67
2021/04/03 12:34:53;;;;;;;2.45;1.60;;;14.20;37.70;;;;;;10103264;28;20423;-66
2021/04/03 12:39:44;;;;;;;2.22;1.30;;;14.10;37.10;;;;;;10090619;28;20087;-67
2021/04/03 12:44:35;;;;;;;2.40;1.05;;;14.20;37.00;;;;;;10091045;28;20107;-67
2021/04/03 12:49:26;;;;;;;1.70;1.02;;;14.40;37.10;;;;;;10091204;28;20028;-66
2021/04/03 12:54:17;;;;;;;3.50;1.45;;;14.40;36.90;;;;;;10091372;28;20028;-66
2021/04/03 12:59:08;;;;;;;3.78;1.40;;;14.60;36.60;;;;;;10090299;28;20277;-67
2021/04/03 13:03:59;;;;;;;5.22;1.52;;;14.60;36.80;;;;;;10091260;28;20047;-66
2021/04/03 13:08:49;;;;;;;12.65;6.63;;;15.10;36.30;;;;;;10090285;28;20032;-67
2021/04/03 13:13:40;;;;;;;3.85;1.65;;;15.60;36.90;;;;;;10091246;28;20079;-67
2021/04/03 13:18:32;;;;;;;4.25;1.67;;;16.30;36.40;;;;;;10090679;28;20481;-67
2021/04/03 13:23:23;;;;;;;2.85;1.98;;;16.40;36.20;;;;;;10088921;28;20137;-67
2021/04/03 13:28:14;;;;;;;2.42;1.60;;;17.60;34.50;;;;;;10088365;28;20568;-66
2021/04/03 13:33:05;;;;;;;3.25;1.27;;;19.40;32.60;;;;;;10090239;28;20135;-66
2021/04/03 13:37:56;;;;;;;3.08;1.25;;;21.90;30.10;;;;;;10089845;28;20070;-68
2021/04/03 13:42:47;;;;;;;1.90;1.70;;;22.20;28.70;;;;;;10092564;28;20032;-66
2021/04/03 13:47:38;;;;;;;3.10;1.45;;;23.10;27.70;;;;;;10098355;28;20036;-67
2021/04/03 13:52:29;;;;;;;3.72;1.52;;;23.40;27.10;;;;;;10097574;28;20126;-68
2021/04/03 13:57:19;;;;;;;2.47;1.38;;;24.00;26.40;;;;;;10098051;28;20509;-67
2021/04/03 14:02:10;;;;;;;3.15;1.38;;;23.30;26.00;;;;;;10079746;28;20101;-68
2021/04/03 14:07:01;;;;;;;2.80;1.90;;;23.50;25.70;;;;;;10097093;28;20320;-67
2021/04/03 14:11:52;;;;;;;5.32;1.38;;;23.80;25.80;;;;;;10097906;28;20072;-66
2021/04/03 14:16:43;;;;;;;2.60;1.23;;;23.30;25.40;;;;;;10097252;28;20059;-67
2021/04/03 14:21:34;;;;;;;2.13;1.33;;;22.10;25.60;;;;;;10096854;28;21380;-67
2021/04/03 14:26:25;;;;;;;1.95;1.23;;;22.20;25.80;;;;;;10111391;28;20044;-68
2021/04/03 14:31:16;;;;;;;6.03;1.80;;;22.30;25.70;;;;;;10096548;28;21323;-68
2021/04/03 14:36:08;;;;;;;4.13;1.40;;;21.10;25.80;;;;;;10096019;28;20043;-67
2021/04/03 14:40:59;;;;;;;1.80;1.50;;;20.30;26.10;;;;;;10095666;28;20050;-67
2021/04/03 14:45:49;;;;;;;3.20;1.50;;;20.00;26.00;;;;;;10096000;28;20028;-67
2021/04/03 14:50:40;;;;;;;2.33;1.40;;;20.20;25.50;;;;;;10077059;28;20461;-67
2021/04/03 14:55:31;;;;;;;2.13;1.70;;;20.70;25.10;;;;;;10093959;28;20037;-67
2021/04/03 15:00:23;;;;;;;2.58;1.40;;;20.60;24.90;;;;;;10095651;28;20051;-66
2021/04/03 15:05:14;;;;;;;2.50;1.60;;;21.20;24.70;;;;;;10094616;28;20139;-66
2021/04/03 15:10:05;;;;;;;2.33;1.25;;;22.40;24.50;;;;;;10095378;28;20048;-66
2021/04/03 15:14:56;;;;;;;4.95;1.63;;;21.90;24.00;;;;;;10076740;28;20063;-66
2021/04/03 15:19:47;;;;;;;2.08;0.88;;;23.00;23.70;;;;;;10094459;28;20028;-66
2021/04/03 15:24:38;;;;;;;1.90;1.67;;;23.30;23.40;;;;;;10108798;28;20075;-66
2021/04/03 15:29:29;;;;;;;4.43;1.27;;;23.30;23.30;;;;;;10094521;28;20858;-66
2021/04/03 15:34:20;;;;;;;6.30;1.55;;;22.80;22.80;;;;;;10093756;28;20083;-66
2021/04/03 15:39:11;;;;;;;3.20;1.45;;;19.60;25.20;;;;;;10109709;28;20123;-66
2021/04/03 15:44:02;;;;;;;5.22;1.55;;;22.50;23.20;;;;;;10094417;28;20052;-67
2021/04/03 15:48:55;;;;;;;3.67;1.20;;;21.10;23.10;;;;;;10093269;28;20028;-67
2021/04/03 15:53:47;;;;;;;2.33;1.50;;;18.30;25.10;;;;;;10093998;28;20345;-66
2021/04/03 15:58:38;;;;;;;5.03;2.00;;;16.90;26.10;;;;;;10093640;28;20032;-68
2021/04/03 16:03:28;;;;;;;2.65;1.35;;;17.50;25.40;;;;;;10093130;28;20040;-66
2021/04/03 16:08:19;;;;;;;4.15;2.35;;;21.70;22.90;;;;;;10093376;28;20127;-67
2021/04/03 16:13:10;;;;;;;6.32;2.50;;;23.50;22.00;;;;;;10108161;28;20114;-68
2021/04/03 16:18:01;;;;;;;2.30;1.23;;;22.00;22.80;;;;;;10074255;28;20032;-67
2021/04/03 16:22:52;;;;;;;3.72;1.88;;;18.70;25.10;;;;;;10091931;28;20032;-67
2021/04/03 16:27:43;;;;;;;3.33;1.10;;;16.30;26.50;;;;;;10092129;28;20446;-67
2021/04/03 16:32:34;;;;;;;1.80;1.48;;;15.80;27.30;;;;;;10106810;28;20056;-67
2021/04/03 16:37:24;;;;;;;2.17;0.95;;;15.60;26.50;;;;;;10092357;28;20040;-67
2021/04/03 16:42:15;;;;;;;3.05;1.00;;;16.50;26.10;;;;;;10092137;28;20031;-67
2021/04/03 16:47:06;;;;;;;2.60;1.20;;;17.80;25.10;;;;;;10089824;28;20032;-67
2021/04/03 16:51:57;;;;;;;3.33;1.25;;;17.60;25.30;;;;;;10073488;28;20039;-67
2021/04/03 16:56:47;;;;;;;2.70;1.35;;;17.00;25.90;;;;;;10090396;28;20131;-68
2021/04/03 17:01:38;;;;;;;4.55;1.70;;;18.30;25.40;;;;;;10072501;28;20090;-66
2021/04/03 17:06:29;;;;;;;2.40;0.95;;;18.50;25.10;;;;;;10091465;28;20482;-67
2021/04/03 17:11:20;;;;;;;1.35;1.17;;;18.30;25.40;;;;;;10072357;28;20037;-67
2021/04/03 17:16:10;;;;;;;1.20;1.10;;;17.90;25.80;;;;;;10105194;28;20410;-66
2021/04/03 17:21:01;;;;;;;2.85;2.28;;;17.20;26.10;;;;;;10090790;28;20119;-66
2021/04/03 17:25:52;;;;;;;3.13;1.90;;;16.00;27.00;;;;;;10088333;28;20102;-67
2021/04/03 17:30:46;;;;;;;2.95;1.38;;;15.30;27.30;;;;;;10089775;28;20049;-66
2021/04/03 17:35:37;;;;;;;3.33;1.10;;;15.00;27.50;;;;;;10090953;28;20610;-67
2021/04/03 17:40:28;;;;;;;4.28;1.40;;;14.70;27.50;;;;;;10105223;28;20875;-66
2021/04/03 17:45:19;;;;;;;2.80;1.30;;;14.70;27.60;;;;;;10089732;28;20056;-67
2021/04/03 17:50:10;;;;;;;3.10;1.50;;;14.50;27.70;;;;;;10090162;28;20262;-66
2021/04/03 17:55:01;;;;;;;4.03;1.30;;;14.40;27.80;;;;;;10073215;28;21189;-67
2021/04/03 17:59:51;;;;;;;2.58;1.10;;;14.30;28.20;;;;;;10072247;28;20056;-67
2021/04/03 18:04:42;;;;;;;3.90;1.27;;;14.10;28.10;;;;;;10090561;28;20424;-68
2021/04/03 18:09:33;;;;;;;5.80;1.30;;;14.00;28.40;;;;;;10089904;28;21729;-67
2021/04/03 18:14:24;;;;;;;2.67;1.23;;;14.00;28.40;;;;;;10089468;28;20537;-67
2021/04/03 18:19:15;;;;;;;2.10;1.13;;;14.00;28.50;;;;;;10089899;28;20032;-68
2021/04/03 18:24:09;;;;;;;2.90;1.50;;;13.80;28.70;;;;;;10103257;28;20805;-68
2021/04/03 18:29:00;;;;;;;3.85;1.10;;;13.80;28.80;;;;;;10104124;28;20040;-67
2021/04/03 18:33:51;;;;;;;2.10;1.17;;;13.70;29.10;;;;;;10096140;28;20581;-66
2021/04/03 18:38:42;;;;;;;3.45;1.92;;;13.60;29.30;;;;;;10096358;28;20270;-67
2021/04/03 18:43:33;;;;;;;3.05;1.08;;;13.60;29.40;;;;;;10095914;28;20129;-67
2021/04/03 18:48:23;;;;;;;2.17;1.20;;;13.50;29.50;;;;;;10096382;28;20573;-68
2021/04/03 18:53:14;;;;;;;2.88;1.13;;;13.30;29.90;;;;;;10096019;28;20043;-68
2021/04/03 18:58:06;;;;;;;1.73;0.88;;;13.30;30.10;;;;;;10060600;28;20078;-68
2021/04/03 19:02:57;;;;;;;3.20;1.52;;;13.30;30.00;;;;;;10078225;28;20044;-68
2021/04/03 19:07:48;;;;;;;5.38;1.25;;;13.20;30.00;;;;;;10060757;28;20511;-68
2021/04/03 19:12:41;;;;;;;3.85;1.83;;;13.10;30.50;;;;;;10095029;28;20371;-68
2021/04/03 19:17:32;;;;;;;1.35;1.02;;;13.10;30.60;;;;;;10094884;28;20036;-68
2021/04/03 19:22:23;;;;;;;3.72;1.60;;;13.00;30.70;;;;;;10094976;28;20393;-69
2021/04/03 19:27:14;;;;;;;4.28;1.75;;;13.00;30.80;;;;;;10093185;28;20028;-68
2021/04/03 19:32:06;;;;;;;1.67;1.23;;;13.10;30.80;;;;;;10094762;28;20052;-68
2021/04/03 19:36:57;;;;;;;1.70;0.90;;;13.00;31.00;;;;;;10076223;28;20032;-68
2021/04/03 19:41:47;;;;;;;2.65;1.55;;;12.90;31.10;;;;;;10094088;28;20063;-68
2021/04/03 19:46:38;;;;;;;1.92;1.08;;;12.80;31.30;;;;;;10094433;28;20397;-68
2021/04/03 19:51:29;;;;;;;5.70;1.77;;;12.80;31.40;;;;;;10093353;28;20047;-68
2021/04/03 19:56:20;;;;;;;2.40;1.23;;;12.70;31.60;;;;;;10093863;28;20055;-68
2021/04/03 20:01:11;;;;;;;2.22;1.13;;;12.60;31.80;;;;;;10091751;28;20358;-67
2021/04/03 20:06:03;;;;;;;2.97;1.25;;;12.50;32.00;;;;;;10071818;28;20123;-68
2021/04/03 20:10:54;;;;;;;3.00;1.27;;;12.50;32.70;;;;;;10093116;28;20127;-68
2021/04/03 20:15:45;;;;;;;1.80;0.85;;;12.40;32.10;;;;;;10092696;28;20074;-69
2021/04/03 20:20:36;;;;;;;1.75;1.23;;;12.30;32.30;;;;;;10074599;28;20457;-68
2021/04/03 20:25:28;;;;;;;2.08;1.15;;;12.20;32.60;;;;;;10090873;28;20021;-69
2021/04/03 20:30:19;;;;;;;3.70;1.05;;;12.10;32.80;;;;;;10092401;28;20033;-69
2021/04/03 20:35:10;;;;;;;4.72;1.75;;;12.10;32.60;;;;;;10106240;28;20395;-68
2021/04/03 20:40:01;;;;;;;4.88;1.15;;;12.00;32.70;;;;;;10092206;28;20031;-68
2021/04/03 20:44:53;;;;;;;6.53;1.70;;;12.00;33.00;;;;;;10092671;28;20031;-68
2021/04/03 20:49:43;;;;;;;2.55;1.58;;;12.00;32.90;;;;;;10091361;28;20045;-68
2021/04/03 20:54:34;;;;;;;3.40;1.00;;;11.90;32.90;;;;;;10090972;28;20492;-68
2021/04/03 20:59:25;;;;;;;3.60;1.20;;;11.90;32.80;;;;;;10091953;28;20039;-67
2021/04/03 21:04:16;;;;;;;3.10;1.42;;;11.90;33.00;;;;;;10089987;28;20051;-69
2021/04/03 21:09:07;;;;;;;2.03;1.20;;;11.80;33.10;;;;;;10090401;28;20032;-68
2021/04/03 21:13:58;;;;;;;3.88;1.77;;;11.70;33.30;;;;;;10091511;28;20032;-68
2021/04/03 21:18:48;;;;;;;2.25;1.25;;;11.60;33.30;;;;;;10090345;28;20029;-68
2021/04/03 21:23:39;;;;;;;4.32;1.45;;;11.50;33.50;;;;;;10089734;28;20043;-68
2021/04/03 21:28:30;;;;;;;3.75;1.30;;;11.40;33.90;;;;;;10091180;28;20103;-68
2021/04/03 21:33:21;;;;;;;3.78;1.60;;;11.30;34.00;;;;;;10089748;28;20489;-68
2021/04/03 21:38:11;;;;;;;3.45;1.50;;;11.20;34.00;;;;;;10090286;28;20041;-68
2021/04/03 21:43:02;;;;;;;4.43;1.80;;;11.20;34.20;;;;;;10090999;28;20024;-69
2021/04/03 21:47:53;;;;;;;4.38;1.70;;;11.10;34.10;;;;;;10089601;28;20754;-69
2021/04/03 21:52:44;;;;;;;4.35;1.88;;;11.10;34.20;;;;;;10072156;28;20040;-68
2021/04/03 21:57:34;;;;;;;2.55;1.73;;;11.10;34.10;;;;;;10090685;28;20117;-69
2021/04/03 22:02:25;;;;;;;6.72;1.70;;;10.90;34.50;;;;;;10089530;28;20112;-68
2021/04/03 22:07:16;;;;;;;2.35;1.58;;;10.90;34.50;;;;;;10097569;28;20074;-68
2021/04/03 22:12:07;;;;;;;3.70;2.58;;;10.80;34.60;;;;;;10098421;28;20141;-68
2021/04/03 22:16:58;;;;;;;2.10;1.30;;;10.60;35.20;;;;;;10094458;28;20029;-68
2021/04/03 22:21:49;;;;;;;2.55;1.35;;;10.40;35.70;;;;;;10097817;28;20029;-68
2021/04/03 22:26:41;;;;;;;4.70;1.30;;;10.40;35.50;;;;;;10095721;28;20466;-69
2021/04/03 22:31:32;;;;;;;2.97;1.60;;;10.40;35.90;;;;;;10095695;28;20413;-68
2021/04/03 22:36:23;;;;;;;5.75;1.67;;;10.20;36.10;;;;;;10096819;28;20043;-68
2021/04/03 22:41:14;;;;;;;2.83;0.98;;;10.20;36.30;;;;;;10078377;28;20044;-68
2021/04/03 22:46:05;;;;;;;1.48;1.27;;;10.20;36.10;;;;;;10095685;28;20052;-68
2021/04/03 22:50:55;;;;;;;2.20;1.50;;;10.10;36.60;;;;;;10079070;28;20066;-69
2021/04/03 22:55:46;;;;;;;1.65;1.10;;;10.00;36.80;;;;;;10096131;28;20116;-67
2021/04/03 23:00:41;;;;;;;2.13;1.73;;;10.00;36.80;;;;;;10095593;28;20441;-69
2021/04/03 23:05:34;;;;;;;2.45;1.58;;;10.00;36.70;;;;;;10095400;28;20427;-69
2021/04/03 23:10:26;;;;;;;2.97;1.80;;;9.90;37.50;;;;;;10095726;28;20052;-68
2021/04/03 23:15:17;;;;;;;4.80;1.40;;;9.70;37.50;;;;;;10094180;28;20040;-68
2021/04/03 23:20:10;;;;;;;1.98;1.33;;;9.80;37.40;;;;;;10078296;28;20441;-68
2021/04/03 23:25:02;;;;;;;1.90;1.20;;;9.80;37.40;;;;;;10093752;28;20470;-68
2021/04/03 23:29:53;;;;;;;3.08;1.48;;;9.60;38.10;;;;;;10076464;28;20265;-68
2021/04/03 23:34:44;;;;;;;2.30;1.30;;;9.40;38.90;;;;;;10094063;28;20356;-68
2021/04/03 23:39:35;;;;;;;2.95;1.42;;;9.30;39.00;;;;;;10093975;28;20499;-67
2021/04/03 23:44:26;;;;;;;4.60;2.00;;;9.40;38.90;;;;;;10093326;28;20027;-68
2021/04/03 23:49:17;;;;;;;4.70;1.70;;;9.40;38.30;;;;;;10095060;28;20524;-68
2021/04/03 23:54:08;;;;;;;3.47;1.48;;;9.40;37.90;;;;;;10093515;28;20697;-68
2021/04/03 23:58:59;;;;;;;1.88;1.50;;;9.40;38.00;;;;;;10075771;28;20526;-69
